createdAt,value
2018-02-27T00:01:49.139Z,-6.40
2018-02-27T00:04:21.737Z,-6.50
2018-02-27T00:06:50.015Z,-6.50
2018-02-27T00:09:20.293Z,-6.40
2018-02-27T00:11:48.744Z,-6.40
2018-02-27T00:14:17.848Z,-6.40
2018-02-27T00:16:46.126Z,-6.40
2018-02-27T00:19:14.417Z,-6.20
2018-02-27T00:21:43.446Z,-6.40
2018-02-27T00:24:11.741Z,-6.30
2018-02-27T00:26:40.171Z,-6.40
2018-02-27T00:29:09.800Z,-6.30
2018-02-27T00:31:38.181Z,-6.40
2018-02-27T00:34:07.232Z,-6.30
2018-02-27T00:36:35.493Z,-6.50
2018-02-27T00:39:04.541Z,-6.70
2018-02-27T00:41:33.249Z,-6.70
2018-02-27T00:44:03.067Z,-6.90
2018-02-27T00:46:32.888Z,-6.90
2018-02-27T00:49:02.117Z,-7.00
2018-02-27T00:51:30.392Z,-7.10
2018-02-27T00:54:00.644Z,-7.00
2018-02-27T00:56:29.414Z,-7.10
2018-02-27T00:58:58.444Z,-7.10
2018-02-27T01:01:26.730Z,-7.20
2018-02-27T01:03:55.050Z,-7.20
2018-02-27T01:06:23.319Z,-7.30
2018-02-27T01:08:51.594Z,-7.30
2018-02-27T01:11:21.254Z,-7.40
2018-02-27T01:13:49.522Z,-7.40
2018-02-27T01:16:18.280Z,-7.40
2018-02-27T01:18:47.508Z,-7.50
2018-02-27T01:21:15.805Z,-7.60
2018-02-27T01:23:44.896Z,-7.60
2018-02-27T01:26:13.384Z,-7.70
2018-02-27T01:28:41.659Z,-7.80
2018-02-27T01:31:09.948Z,-7.80
2018-02-27T01:33:39.496Z,-7.90
2018-02-27T01:36:07.826Z,-7.90
2018-02-27T01:38:36.079Z,-8.00
2018-02-27T01:41:04.577Z,-8.00
2018-02-27T01:43:36.376Z,-8.00
2018-02-27T01:46:04.752Z,-8.00
2018-02-27T01:48:33.178Z,-8.10
2018-02-27T01:51:13.251Z,-8.10
2018-02-27T01:53:43.848Z,-8.20
2018-02-27T01:56:12.099Z,-8.20
2018-02-27T01:58:40.393Z,-8.20
2018-02-27T02:01:08.895Z,-8.30
2018-02-27T02:03:37.953Z,-8.30
2018-02-27T02:06:07.485Z,-8.40
2018-02-27T02:08:35.779Z,-8.30
2018-02-27T02:11:04.860Z,-8.30
2018-02-27T02:13:33.152Z,-8.40
2018-02-27T02:16:01.623Z,-8.40
2018-02-27T02:18:33.245Z,-8.40
2018-02-27T02:21:01.539Z,-8.40
2018-02-27T02:23:29.878Z,-8.50
2018-02-27T02:25:58.151Z,-8.50
2018-02-27T02:28:27.182Z,-8.60
2018-02-27T02:30:56.606Z,-8.60
2018-02-27T02:33:24.887Z,-8.70
2018-02-27T02:35:53.947Z,-8.80
2018-02-27T02:38:22.370Z,-8.80
2018-02-27T02:40:50.644Z,-8.80
2018-02-27T02:43:21.930Z,-8.80
2018-02-27T02:45:50.366Z,-8.80
2018-02-27T02:48:18.645Z,-8.80
2018-02-27T02:50:46.923Z,-8.80
2018-02-27T02:53:15.231Z,-8.80
2018-02-27T02:55:47.512Z,-8.80
2018-02-27T02:58:15.781Z,-8.80
2018-02-27T03:00:44.842Z,-8.90
2018-02-27T03:03:13.918Z,-8.90
2018-02-27T03:05:42.172Z,-8.90
2018-02-27T03:08:11.405Z,-8.90
2018-02-27T03:10:39.682Z,-8.90
2018-02-27T03:13:08.777Z,-8.80
2018-02-27T03:15:37.105Z,-8.90
2018-02-27T03:18:05.373Z,-8.90
2018-02-27T03:20:36.526Z,-8.90
2018-02-27T03:23:04.836Z,-8.90
2018-02-27T03:25:34.661Z,-8.90
2018-02-27T03:28:02.905Z,-8.90
2018-02-27T03:30:31.628Z,-8.90
2018-02-27T03:32:59.971Z,-9.00
2018-02-27T03:35:28.235Z,-9.00
2018-02-27T03:37:56.860Z,-9.00
2018-02-27T03:40:25.121Z,-8.90
2018-02-27T03:42:53.404Z,-9.00
2018-02-27T03:45:23.617Z,-9.10
2018-02-27T03:47:51.871Z,-9.10
2018-02-27T03:50:22.373Z,-9.10
2018-02-27T03:52:50.678Z,-9.20
2018-02-27T03:55:18.943Z,-9.20
2018-02-27T03:57:48.756Z,-9.20
2018-02-27T04:00:17.398Z,-9.10
2018-02-27T04:02:45.669Z,-9.10
2018-02-27T04:05:13.943Z,-9.10
2018-02-27T04:07:42.274Z,-9.00
2018-02-27T04:10:14.959Z,-8.90
2018-02-27T04:12:43.399Z,-8.90
2018-02-27T04:15:12.431Z,-9.00
2018-02-27T04:17:40.705Z,-9.00
2018-02-27T04:20:09.013Z,-8.90
2018-02-27T04:22:37.669Z,-8.90
2018-02-27T04:25:05.962Z,-9.00
2018-02-27T04:27:35.274Z,-9.00
2018-02-27T04:30:03.586Z,-9.00
2018-02-27T04:32:32.614Z,-9.00
2018-02-27T04:35:02.462Z,-9.10
2018-02-27T04:37:30.738Z,-9.10
2018-02-27T04:39:59.742Z,-9.10
2018-02-27T04:42:28.413Z,-9.10
2018-02-27T04:44:56.689Z,-9.20
2018-02-27T04:47:25.708Z,-9.20
2018-02-27T04:49:54.031Z,-9.20
2018-02-27T04:52:23.060Z,-9.30
2018-02-27T04:54:51.319Z,-9.30
2018-02-27T04:57:19.614Z,-9.40
2018-02-27T04:59:50.503Z,-9.40
2018-02-27T05:02:18.812Z,-9.40
2018-02-27T05:04:47.414Z,-9.50
2018-02-27T05:07:15.686Z,-9.50
2018-02-27T05:09:43.976Z,-9.50
2018-02-27T05:12:13.028Z,-9.60
2018-02-27T05:14:41.307Z,-9.60
2018-02-27T05:17:10.281Z,-9.60
2018-02-27T05:19:38.725Z,-9.60
2018-02-27T05:22:07.031Z,-9.60
2018-02-27T05:24:38.001Z,-9.60
2018-02-27T05:27:06.472Z,-9.60
2018-02-27T05:29:34.764Z,-9.60
2018-02-27T05:32:03.037Z,-9.70
2018-02-27T05:34:31.842Z,-9.70
2018-02-27T05:37:00.177Z,-9.70
2018-02-27T05:39:28.441Z,-9.70
2018-02-27T05:41:58.254Z,-9.70
2018-02-27T05:44:26.517Z,-9.80
2018-02-27T05:46:55.569Z,-9.90
2018-02-27T05:49:24.976Z,-9.90
2018-02-27T05:51:53.255Z,-9.90
2018-02-27T05:54:21.510Z,-9.90
2018-02-27T05:56:49.834Z,-9.80
2018-02-27T05:59:18.101Z,-10.00
2018-02-27T06:01:47.949Z,-10.10
2018-02-27T06:04:16.495Z,-10.10
2018-02-27T06:06:44.797Z,-10.00
2018-02-27T06:09:13.837Z,-10.00
2018-02-27T06:11:42.148Z,-10.00
2018-02-27T06:14:12.331Z,-10.00
2018-02-27T06:16:40.714Z,-10.00
2018-02-27T06:19:09.010Z,-10.00
2018-02-27T06:21:38.070Z,-10.00
2018-02-27T06:24:06.341Z,-10.00
2018-02-27T06:26:35.236Z,-10.00
2018-02-27T06:29:03.511Z,-10.00
2018-02-27T06:31:32.558Z,-10.00
2018-02-27T06:34:01.208Z,-10.00
2018-02-27T06:36:29.483Z,-10.10
2018-02-27T06:38:59.176Z,-10.10
2018-02-27T06:41:27.600Z,-10.00
2018-02-27T06:43:55.880Z,-9.80
2018-02-27T06:46:24.227Z,-9.70
2018-02-27T06:48:52.714Z,-9.60
2018-02-27T06:51:22.519Z,-9.60
2018-02-27T06:53:50.784Z,-9.50
2018-02-27T06:56:21.519Z,-9.50
2018-02-27T06:58:49.794Z,-9.40
2018-02-27T07:01:18.856Z,-9.30
2018-02-27T07:03:49.032Z,-9.30
2018-02-27T07:06:17.325Z,-9.30
2018-02-27T07:08:46.324Z,-9.30
2018-02-27T07:11:14.666Z,-9.20
2018-02-27T07:13:42.934Z,-9.30
2018-02-27T07:16:11.202Z,-9.30
2018-02-27T07:18:39.515Z,-9.30
2018-02-27T07:21:07.817Z,-9.40
2018-02-27T07:23:36.879Z,-9.30
2018-02-27T07:26:06.008Z,-9.40
2018-02-27T07:28:39.741Z,-8.80
2018-02-27T07:31:08.352Z,-8.90
2018-02-27T07:33:36.634Z,-8.60
2018-02-27T07:36:04.907Z,-8.60
2018-02-27T07:38:33.224Z,-8.50
2018-02-27T07:41:02.355Z,-7.90
2018-02-27T07:43:30.632Z,-7.90
2018-02-27T07:45:58.945Z,-8.10
2018-02-27T07:48:27.239Z,-8.30
2018-02-27T07:50:56.280Z,-7.60
2018-02-27T07:53:26.009Z,-7.60
2018-02-27T07:55:54.294Z,-7.70
2018-02-27T07:58:23.287Z,-7.50
2018-02-27T08:00:51.880Z,-7.60
2018-02-27T08:03:20.180Z,-7.90
2018-02-27T08:05:49.975Z,-7.80
2018-02-27T08:08:18.292Z,-7.70
2018-02-27T08:10:48.096Z,-7.40
2018-02-27T08:13:17.196Z,-6.90
2018-02-27T08:15:45.622Z,-6.90
2018-02-27T08:18:13.941Z,-6.60
2018-02-27T08:20:42.222Z,-6.80
2018-02-27T08:23:13.615Z,-6.80
2018-02-27T08:25:41.900Z,-6.80
2018-02-27T08:28:10.166Z,-7.40
2018-02-27T08:30:39.682Z,-7.10
2018-02-27T08:33:07.968Z,-7.20
2018-02-27T08:35:36.962Z,-6.60
2018-02-27T08:38:05.549Z,-7.00
2018-02-27T08:40:33.826Z,-6.60
2018-02-27T08:43:05.681Z,-7.00
2018-02-27T08:45:35.001Z,-7.40
2018-02-27T08:48:03.332Z,-7.40
2018-02-27T08:50:31.676Z,-7.10
2018-02-27T08:53:00.772Z,-6.50
2018-02-27T08:55:31.343Z,-7.00
2018-02-27T08:57:59.754Z,-7.00
2018-02-27T09:00:28.425Z,-6.80
2018-02-27T09:02:56.713Z,-6.50
2018-02-27T09:05:25.753Z,-6.30
2018-02-27T09:07:55.382Z,-6.30
2018-02-27T09:10:23.656Z,-6.50
2018-02-27T09:12:52.646Z,-6.90
2018-02-27T09:15:20.956Z,-6.70
2018-02-27T09:17:49.229Z,-6.60
2018-02-27T09:20:18.372Z,-6.20
2018-02-27T09:22:46.896Z,-5.20
2018-02-27T09:25:15.280Z,-6.10
2018-02-27T09:27:43.952Z,-6.00
2018-02-27T09:30:13.608Z,-6.10
2018-02-27T09:32:45.553Z,-6.80
2018-02-27T09:35:18.617Z,-6.40
2018-02-27T09:37:56.078Z,-6.40
2018-02-27T09:40:25.316Z,-6.10
2018-02-27T09:42:56.045Z,-6.40
2018-02-27T09:45:25.550Z,-6.50
2018-02-27T09:48:00.014Z,-6.30
2018-02-27T09:50:31.994Z,-6.10
2018-02-27T09:53:09.983Z,-6.10
2018-02-27T09:55:39.480Z,-6.70
2018-02-27T09:58:11.687Z,-6.00
2018-02-27T10:00:42.168Z,-6.00
2018-02-27T10:03:12.267Z,-5.60
2018-02-27T10:05:44.952Z,-5.60
2018-02-27T10:08:15.101Z,-5.80
2018-02-27T10:10:46.929Z,-4.90
2018-02-27T10:13:27.008Z,-4.90
2018-02-27T10:15:59.879Z,-5.30
2018-02-27T10:18:40.047Z,-5.40
2018-02-27T10:21:08.227Z,-4.40
2018-02-27T10:23:39.173Z,-5.10
2018-02-27T10:26:11.222Z,-4.90
2018-02-27T10:28:39.392Z,-4.90
2018-02-27T10:31:07.795Z,-5.50
2018-02-27T10:33:38.280Z,-4.90
2018-02-27T10:36:09.147Z,-4.90
2018-02-27T10:38:37.453Z,-4.90
2018-02-27T10:41:05.728Z,-5.00
2018-02-27T10:43:34.047Z,-4.10
2018-02-27T10:46:02.834Z,-4.10
2018-02-27T10:48:38.336Z,-3.60
2018-02-27T10:51:15.789Z,-3.60
2018-02-27T10:56:38.069Z,-4.10
2018-02-27T10:59:23.889Z,-3.40
2018-02-27T11:01:56.711Z,-3.50
2018-02-27T11:04:26.414Z,-4.40
2018-02-27T11:09:31.436Z,-4.20
2018-02-27T11:12:03.551Z,-4.00
2018-02-27T11:14:33.136Z,-3.00
2018-02-27T11:17:03.127Z,-2.90
2018-02-27T11:19:31.820Z,-3.80
2018-02-27T11:22:01.317Z,-3.80
2018-02-27T11:24:30.629Z,-3.80
2018-02-27T11:26:59.222Z,-4.00
2018-02-27T11:29:41.916Z,-4.40
2018-02-27T11:32:12.259Z,-3.60
2018-02-27T11:34:43.973Z,-3.20
2018-02-27T11:37:12.377Z,-4.40
2018-02-27T11:39:43.420Z,-4.10
2018-02-27T11:42:13.336Z,-4.20
2018-02-27T11:44:44.900Z,-3.90
2018-02-27T11:47:13.236Z,-4.50
2018-02-27T11:49:41.423Z,-4.10
2018-02-27T11:52:11.555Z,-3.70
2018-02-27T11:54:48.842Z,-3.70
2018-02-27T11:57:34.595Z,-3.60
2018-02-27T12:02:50.518Z,-4.20
2018-02-27T12:05:20.670Z,-4.30
2018-02-27T12:07:48.927Z,-3.50
2018-02-27T12:10:20.076Z,-3.90
2018-02-27T12:12:49.172Z,-3.70
2018-02-27T12:15:18.376Z,-3.10
2018-02-27T12:17:48.271Z,-3.10
2018-02-27T12:20:16.873Z,-4.00
2018-02-27T12:22:48.294Z,-3.30
2018-02-27T12:25:17.551Z,-3.20
2018-02-27T12:27:47.538Z,-2.70
2018-02-27T12:30:15.846Z,-3.00
2018-02-27T12:32:44.290Z,-3.50
2018-02-27T12:35:13.251Z,-3.80
2018-02-27T12:37:41.539Z,-2.90
2018-02-27T12:40:12.332Z,-3.60
2018-02-27T12:42:40.672Z,-3.70
2018-02-27T12:45:08.966Z,-2.80
2018-02-27T12:47:37.448Z,-2.70
2018-02-27T12:50:05.739Z,-3.10
2018-02-27T12:52:37.797Z,-3.00
2018-02-27T12:55:07.283Z,-3.10
2018-02-27T12:57:35.605Z,-2.90
2018-02-27T13:00:04.855Z,-3.20
2018-02-27T13:02:33.397Z,-3.20
2018-02-27T13:05:03.227Z,-2.80
2018-02-27T13:07:32.318Z,-2.30
2018-02-27T13:10:03.972Z,-2.60
2018-02-27T13:12:33.122Z,-3.40
2018-02-27T13:15:01.425Z,-3.30
2018-02-27T13:17:33.603Z,-2.70
2018-02-27T13:20:06.681Z,-2.60
2018-02-27T13:22:36.756Z,-2.40
2018-02-27T13:25:05.059Z,-2.40
2018-02-27T13:27:33.697Z,-2.30
2018-02-27T13:30:08.028Z,-2.50
2018-02-27T13:32:37.004Z,-2.20
2018-02-27T13:35:05.276Z,-2.00
2018-02-27T13:37:34.341Z,-2.40
2018-02-27T13:40:04.789Z,-2.70
2018-02-27T13:42:33.073Z,-2.70
2018-02-27T13:45:01.385Z,-2.50
2018-02-27T13:47:29.698Z,-2.60
2018-02-27T13:50:02.590Z,-2.60
2018-02-27T13:52:30.870Z,-2.60
2018-02-27T13:54:59.167Z,-2.20
2018-02-27T13:57:27.648Z,-2.60
2018-02-27T13:59:55.917Z,-2.60
2018-02-27T14:02:26.660Z,-2.70
2018-02-27T14:04:55.126Z,-2.50
2018-02-27T14:07:23.435Z,-2.20
2018-02-27T14:09:51.736Z,-2.40
2018-02-27T14:12:20.372Z,-2.60
2018-02-27T14:14:49.429Z,-2.80
2018-02-27T14:17:19.024Z,-1.90
2018-02-27T14:19:47.858Z,-2.00
2018-02-27T14:22:16.650Z,-2.70
2018-02-27T14:24:46.202Z,-2.10
2018-02-27T14:27:15.202Z,-2.50
2018-02-27T14:29:43.489Z,-2.50
2018-02-27T14:32:12.544Z,-2.60
2018-02-27T14:34:40.913Z,-2.60
2018-02-27T14:37:09.911Z,-2.30
2018-02-27T14:39:42.353Z,-2.00
2018-02-27T14:42:10.631Z,-2.60
2018-02-27T14:44:38.926Z,-2.90
2018-02-27T14:47:07.252Z,-2.70
2018-02-27T14:49:36.415Z,-2.60
2018-02-27T14:52:06.730Z,-2.60
2018-02-27T14:54:35.227Z,-2.70
2018-02-27T14:57:03.531Z,-3.00
2018-02-27T14:59:33.153Z,-2.80
2018-02-27T15:02:04.016Z,-2.70
2018-02-27T15:04:35.609Z,-3.00
2018-02-27T15:07:06.631Z,-3.00
2018-02-27T15:09:35.704Z,-3.00
2018-02-27T15:12:04.839Z,-2.80
2018-02-27T15:14:34.290Z,-2.80
2018-02-27T15:17:04.611Z,-3.00
2018-02-27T15:19:33.812Z,-3.00
2018-02-27T15:22:09.656Z,-3.10
2018-02-27T15:24:38.389Z,-3.00
2018-02-27T15:27:08.239Z,-3.00
2018-02-27T15:29:36.879Z,-2.90
2018-02-27T15:32:05.266Z,-3.30
2018-02-27T15:34:33.546Z,-2.90
2018-02-27T15:37:02.233Z,-3.20
2018-02-27T15:39:34.301Z,-3.10
2018-02-27T15:42:05.578Z,-3.00
2018-02-27T15:44:34.107Z,-2.80
2018-02-27T15:47:02.505Z,-2.90
2018-02-27T15:49:30.987Z,-3.00
2018-02-27T15:51:59.366Z,-3.30
2018-02-27T15:54:29.694Z,-3.20
2018-02-27T15:56:58.047Z,-3.50
2018-02-27T15:59:26.324Z,-3.30
2018-02-27T16:01:54.727Z,-3.60
2018-02-27T16:04:34.913Z,-3.60
2018-02-27T16:07:07.582Z,-3.40
2018-02-27T16:09:48.094Z,-3.40
2018-02-27T16:12:18.741Z,-3.30
2018-02-27T16:14:56.461Z,-3.40
2018-02-27T16:17:25.142Z,-3.30
2018-02-27T16:19:53.480Z,-3.40
2018-02-27T16:22:21.803Z,-3.60
2018-02-27T16:24:55.357Z,-3.80
2018-02-27T16:27:23.649Z,-3.70
2018-02-27T16:29:51.947Z,-4.00
2018-02-27T16:32:20.926Z,-3.80
2018-02-27T16:34:50.152Z,-3.80
2018-02-27T16:37:18.525Z,-3.80
2018-02-27T16:39:46.972Z,-3.80
2018-02-27T16:42:17.242Z,-3.60
2018-02-27T16:44:48.573Z,-4.00
2018-02-27T16:47:16.932Z,-3.90
2018-02-27T16:49:45.442Z,-4.00
2018-02-27T16:52:13.740Z,-4.10
2018-02-27T16:54:42.867Z,-4.20
2018-02-27T16:57:11.277Z,-4.20
2018-02-27T16:59:39.579Z,-4.20
2018-02-27T17:02:09.675Z,-4.30
2018-02-27T17:04:37.988Z,-4.40
2018-02-27T17:07:07.077Z,-4.30
2018-02-27T17:09:36.464Z,-4.40
2018-02-27T17:12:04.763Z,-4.40
2018-02-27T17:14:36.705Z,-4.50
2018-02-27T17:17:05.004Z,-4.50
2018-02-27T17:19:33.440Z,-4.50
2018-02-27T17:22:01.747Z,-4.60
2018-02-27T17:24:32.142Z,-4.60
2018-02-27T17:27:01.428Z,-4.60
2018-02-27T17:29:29.740Z,-4.60
2018-02-27T17:32:02.262Z,-4.70
2018-02-27T17:34:30.525Z,-4.80
2018-02-27T17:36:58.812Z,-4.90
2018-02-27T17:39:27.229Z,-4.90
2018-02-27T17:41:55.519Z,-4.90
2018-02-27T17:44:27.366Z,-5.00
2018-02-27T17:46:56.316Z,-5.00
2018-02-27T17:49:24.934Z,-5.00
2018-02-27T17:51:55.880Z,-5.00
2018-02-27T17:54:24.260Z,-5.00
2018-02-27T17:56:52.564Z,-5.10
2018-02-27T17:59:29.332Z,-5.10
2018-02-27T18:02:02.562Z,-5.10
2018-02-27T18:04:31.926Z,-5.10
2018-02-27T18:07:01.758Z,-5.20
2018-02-27T18:09:30.827Z,-5.20
2018-02-27T18:11:59.539Z,-5.20
2018-02-27T18:14:29.353Z,-5.20
2018-02-27T18:16:58.415Z,-5.30
2018-02-27T18:19:27.058Z,-5.30
2018-02-27T18:21:55.462Z,-5.30
2018-02-27T18:24:24.760Z,-5.30
2018-02-27T18:26:53.377Z,-5.40
2018-02-27T18:29:21.661Z,-5.30
2018-02-27T18:31:50.005Z,-5.30
2018-02-27T18:34:18.331Z,-5.40
2018-02-27T18:36:47.629Z,-5.40
2018-02-27T18:39:16.692Z,-5.50
2018-02-27T18:41:45.264Z,-5.50
2018-02-27T18:44:13.613Z,-5.60
2018-02-27T18:46:42.844Z,-5.60
2018-02-27T18:49:15.638Z,-5.60
2018-02-27T18:51:43.903Z,-5.70
2018-02-27T18:54:12.968Z,-5.70
2018-02-27T18:56:41.621Z,-5.80
2018-02-27T18:59:09.956Z,-5.90
2018-02-27T19:01:38.329Z,-5.90
2018-02-27T19:04:06.724Z,-5.90
2018-02-27T19:06:35.257Z,-6.00
2018-02-27T19:09:03.528Z,-6.10
2018-02-27T19:11:32.581Z,-6.10
2018-02-27T19:14:02.177Z,-6.10
2018-02-27T19:16:32.749Z,-6.10
2018-02-27T19:19:01.082Z,-6.10
2018-02-27T19:21:30.325Z,-6.00
2018-02-27T19:23:59.386Z,-6.10
2018-02-27T19:26:28.486Z,-6.10
2018-02-27T19:28:56.763Z,-6.10
2018-02-27T19:31:25.057Z,-6.00
2018-02-27T19:33:54.192Z,-6.00
2018-02-27T19:36:22.467Z,-6.10
2018-02-27T19:38:53.539Z,-6.10
2018-02-27T19:41:26.918Z,-6.20
2018-02-27T19:43:56.914Z,-6.10
2018-02-27T19:46:25.268Z,-6.10
2018-02-27T19:48:56.292Z,-6.30
2018-02-27T19:51:25.337Z,-6.30
2018-02-27T19:53:53.629Z,-6.30
2018-02-27T19:56:21.977Z,-6.30
2018-02-27T19:58:51.224Z,-6.20
2018-02-27T20:01:20.031Z,-6.30
2018-02-27T20:03:49.496Z,-6.30
2018-02-27T20:06:17.795Z,-6.30
2018-02-27T20:08:46.051Z,-6.20
2018-02-27T20:11:14.575Z,-6.20
2018-02-27T20:13:43.705Z,-6.20
2018-02-27T20:16:11.988Z,-6.20
2018-02-27T20:18:41.376Z,-6.20
2018-02-27T20:21:09.709Z,-6.10
2018-02-27T20:23:44.858Z,-6.20
2018-02-27T20:26:13.705Z,-6.20
2018-02-27T20:28:49.888Z,-6.20
2018-02-27T20:31:18.196Z,-6.30
2018-02-27T20:33:47.276Z,-6.50
2018-02-27T20:36:19.045Z,-6.60
2018-02-27T20:38:53.835Z,-6.60
2018-02-27T20:41:22.310Z,-6.70
2018-02-27T20:43:50.689Z,-6.60
2018-02-27T20:46:19.885Z,-6.60
2018-02-27T20:48:48.371Z,-6.90
2018-02-27T20:51:17.902Z,-7.00
2018-02-27T20:53:46.954Z,-7.00
2018-02-27T20:56:15.405Z,-7.00
2018-02-27T20:58:45.252Z,-7.10
2018-02-27T21:01:13.544Z,-6.80
2018-02-27T21:03:47.458Z,-7.10
2018-02-27T21:06:15.804Z,-7.40
2018-02-27T21:08:44.973Z,-7.50
2018-02-27T21:11:15.182Z,-7.40
2018-02-27T21:13:44.246Z,-6.80
2018-02-27T21:16:13.376Z,-6.80
2018-02-27T21:18:44.055Z,-6.90
2018-02-27T21:21:12.362Z,-6.90
2018-02-27T21:23:40.826Z,-6.80
2018-02-27T21:26:12.561Z,-6.80
2018-02-27T21:28:41.729Z,-6.90
2018-02-27T21:31:10.675Z,-7.20
2018-02-27T21:33:40.827Z,-7.20
2018-02-27T21:36:09.888Z,-7.20
2018-02-27T21:38:38.180Z,-7.30
2018-02-27T21:41:06.539Z,-7.20
2018-02-27T21:43:34.857Z,-7.30
2018-02-27T21:46:04.724Z,-7.80
2018-02-27T21:48:33.077Z,-7.90
2018-02-27T21:51:03.693Z,-7.60
2018-02-27T21:53:33.839Z,-7.80
2018-02-27T21:56:02.399Z,-7.30
2018-02-27T21:58:30.718Z,-7.10
2018-02-27T22:00:59.154Z,-7.10
2018-02-27T22:03:27.490Z,-7.10
2018-02-27T22:05:55.812Z,-7.30
2018-02-27T22:08:24.093Z,-7.10
2018-02-27T22:10:53.509Z,-7.10
2018-02-27T22:13:23.294Z,-7.20
2018-02-27T22:15:52.598Z,-7.20
2018-02-27T22:18:20.956Z,-7.20
2018-02-27T22:20:49.268Z,-7.30
2018-02-27T22:23:18.279Z,-7.40
2018-02-27T22:25:47.074Z,-7.30
2018-02-27T22:28:15.378Z,-7.40
2018-02-27T22:30:43.691Z,-7.50
2018-02-27T22:33:12.245Z,-7.40
2018-02-27T22:35:41.078Z,-7.50
2018-02-27T22:38:09.343Z,-7.60
2018-02-27T22:40:37.682Z,-7.70
2018-02-27T22:43:05.952Z,-7.60
2018-02-27T22:45:34.238Z,-7.60
2018-02-27T22:48:05.871Z,-7.70
2018-02-27T22:50:34.118Z,-7.70
2018-02-27T22:53:02.394Z,-7.60
2018-02-27T22:55:31.872Z,-7.70
2018-02-27T22:58:01.736Z,-7.70
2018-02-27T23:00:40.290Z,-7.60
2018-02-27T23:03:08.555Z,-7.70
2018-02-27T23:05:36.826Z,-7.60
2018-02-27T23:08:06.428Z,-7.60
2018-02-27T23:10:36.510Z,-7.60
2018-02-27T23:13:05.548Z,-7.70
2018-02-27T23:15:33.863Z,-7.70
2018-02-27T23:18:02.147Z,-7.70
2018-02-27T23:20:30.395Z,-7.70
2018-02-27T23:22:59.772Z,-7.70
2018-02-27T23:25:56.216Z,-7.80
2018-02-27T23:28:28.404Z,-7.80
2018-02-27T23:30:57.698Z,-7.90
2018-02-27T23:33:40.288Z,-7.90
2018-02-27T23:36:08.541Z,-7.90
2018-02-27T23:38:36.812Z,-8.00
2018-02-27T23:41:05.147Z,-8.00
2018-02-27T23:43:35.762Z,-8.00
2018-02-27T23:46:04.114Z,-8.00
2018-02-27T23:48:32.414Z,-8.10
2018-02-27T23:51:00.672Z,-8.10
2018-02-27T23:53:28.989Z,-8.10
2018-02-27T23:55:59.963Z,-8.10
2018-02-27T23:58:30.087Z,-8.10
